LFRO/LAI METAR and TAF weather

Enter ICAO airport designator
Station Type Date Time Source
LFRO METAR 2021/06/24 05:30 UTC NOAA

LFRO 240530Z AUTO 28003KT 2800 BR SCT007 BKN012 11/11 Q1025


Station Type Date Time Source
LFRO Decoded METAR 2021/06/24 05:30 UTC NOAA

Lannion / Servel, France (LFRO) 48-45N 003-28W
Jun 24, 2021 - 01:30 AM EDT / 2021.06.24 0530 UTC
Wind: from the W (280 degrees) at 3 MPH (3 KT):0
Visibility: 1 mile(s):0
Sky conditions: mostly cloudy
Weather: mist
Temperature: 51 F (11 C)
Dew Point: 51 F (11 C)
Relative Humidity: 100%
Pressure (altimeter): 30.27 in. Hg (1025 hPa)
ob: LFRO 240530Z AUTO 28003KT 2800 BR SCT007 BKN012 11/11 Q1025
cycle: 5

Station Type Date Time Source
LFRO TAF 2019/05/15 19:06 UTC NOAA

TAF LFRO 151936Z 1519/1612 CNL

Example: see airport list